sensor_id;sensor_type;location;lat;lon;timestamp;pressure;altitude;pressure_sealevel;temperature;humidity
4449;BME280;2237;51.870;6.160;2023-04-21T00:02:19;101446.63;;;11.88;100.00
4449;BME280;2237;51.870;6.160;2023-04-21T00:04:45;101435.34;;;11.86;100.00
4449;BME280;2237;51.870;6.160;2023-04-21T00:07:12;101429.28;;;11.86;100.00
4449;BME280;2237;51.870;6.160;2023-04-21T00:09:42;101434.56;;;11.81;100.00
4449;BME280;2237;51.870;6.160;2023-04-21T00:12:08;101428.50;;;11.79;100.00
4449;BME280;2237;51.870;6.160;2023-04-21T00:14:34;101424.97;;;11.83;100.00
4449;BME280;2237;51.870;6.160;2023-04-21T00:17:01;101424.97;;;11.83;100.00
4449;BME280;2237;51.870;6.160;2023-04-21T00:19:27;101419.84;;;11.77;100.00
4449;BME280;2237;51.870;6.160;2023-04-21T00:21:54;101415.63;;;11.70;100.00
4449;BME280;2237;51.870;6.160;2023-04-21T00:24:24;101418.41;;;11.58;100.00
4449;BME280;2237;51.870;6.160;2023-04-21T00:26:51;101412.47;;;11.50;100.00
4449;BME280;2237;51.870;6.160;2023-04-21T00:29:18;101406.38;;;11.51;100.00
4449;BME280;2237;51.870;6.160;2023-04-21T00:31:44;101411.44;;;11.60;100.00
4449;BME280;2237;51.870;6.160;2023-04-21T00:34:11;101412.34;;;11.58;100.00
4449;BME280;2237;51.870;6.160;2023-04-21T00:36:37;101400.91;;;11.65;100.00
4449;BME280;2237;51.870;6.160;2023-04-21T00:39:03;101399.97;;;11.70;100.00
4449;BME280;2237;51.870;6.160;2023-04-21T00:41:31;101393.88;;;11.71;100.00
4449;BME280;2237;51.870;6.160;2023-04-21T00:44:08;101393.81;;;11.74;100.00
4449;BME280;2237;51.870;6.160;2023-04-21T00:46:35;101386.81;;;11.76;100.00
4449;BME280;2237;51.870;6.160;2023-04-21T00:49:04;101370.19;;;11.82;100.00
4449;BME280;2237;51.870;6.160;2023-04-21T00:51:32;101381.47;;;11.82;100.00
4449;BME280;2237;51.870;6.160;2023-04-21T00:54:02;101379.69;;;11.86;100.00
4449;BME280;2237;51.870;6.160;2023-04-21T00:56:31;101381.31;;;11.92;100.00
4449;BME280;2237;51.870;6.160;2023-04-21T00:58:59;101373.59;;;11.85;100.00
4449;BME280;2237;51.870;6.160;2023-04-21T01:01:27;101374.47;;;11.86;100.00
4449;BME280;2237;51.870;6.160;2023-04-21T01:03:57;101374.41;;;11.87;100.00
4449;BME280;2237;51.870;6.160;2023-04-21T01:06:28;101376.09;;;11.92;100.00
4449;BME280;2237;51.870;6.160;2023-04-21T01:08:57;101373.47;;;11.92;100.00
4449;BME280;2237;51.870;6.160;2023-04-21T01:11:24;101370.81;;;11.95;100.00
4449;BME280;2237;51.870;6.160;2023-04-21T01:13:54;101369.00;;;11.98;100.00
4449;BME280;2237;51.870;6.160;2023-04-21T01:16:21;101363.56;;;12.09;100.00
4449;BME280;2237;51.870;6.160;2023-04-21T01:18:49;101363.50;;;12.12;100.00
4449;BME280;2237;51.870;6.160;2023-04-21T01:21:19;101367.94;;;12.08;100.00
4449;BME280;2237;51.870;6.160;2023-04-21T01:23:47;101358.47;;;12.04;100.00
4449;BME280;2237;51.870;6.160;2023-04-21T01:26:16;101349.06;;;11.96;100.00
4449;BME280;2237;51.870;6.160;2023-04-21T01:28:43;101346.63;;;11.85;100.00
4449;BME280;2237;51.870;6.160;2023-04-21T01:31:09;101368.53;;;11.78;100.00
4449;BME280;2237;51.870;6.160;2023-04-21T01:33:36;101361.53;;;11.80;100.00
4449;BME280;2237;51.870;6.160;2023-04-21T01:36:02;101362.34;;;11.82;100.00
4449;BME280;2237;51.870;6.160;2023-04-21T01:38:29;101373.75;;;11.78;100.00
4449;BME280;2237;51.870;6.160;2023-04-21T01:40:55;101358.97;;;11.75;100.00
4449;BME280;2237;51.870;6.160;2023-04-21T01:43:23;101368.53;;;11.78;100.00
4449;BME280;2237;51.870;6.160;2023-04-21T01:45:51;101377.25;;;11.75;100.00
4449;BME280;2237;51.870;6.160;2023-04-21T01:48:18;101368.53;;;11.76;100.00
4449;BME280;2237;51.870;6.160;2023-04-21T01:50:44;101362.50;;;11.73;100.00
4449;BME280;2237;51.870;6.160;2023-04-21T01:53:10;101360.72;;;11.76;100.00
4449;BME280;2237;51.870;6.160;2023-04-21T01:55:37;101355.50;;;11.76;100.00
4449;BME280;2237;51.870;6.160;2023-04-21T01:58:03;101352.00;;;11.77;100.00
4449;BME280;2237;51.870;6.160;2023-04-21T02:00:29;101345.81;;;11.83;100.00
4449;BME280;2237;51.870;6.160;2023-04-21T02:02:56;101347.59;;;11.81;100.00
4449;BME280;2237;51.870;6.160;2023-04-21T02:05:23;101345.13;;;11.73;100.00
4449;BME280;2237;51.870;6.160;2023-04-21T02:07:49;101336.50;;;11.68;100.00
4449;BME280;2237;51.870;6.160;2023-04-21T02:10:15;101347.91;;;11.61;100.00
4449;BME280;2237;51.870;6.160;2023-04-21T02:12:42;101350.56;;;11.58;100.00
4449;BME280;2237;51.870;6.160;2023-04-21T02:15:09;101348.94;;;11.53;100.00
4449;BME280;2237;51.870;6.160;2023-04-21T02:17:35;101340.13;;;11.58;100.00
4449;BME280;2237;51.870;6.160;2023-04-21T02:20:02;101338.53;;;11.51;100.00
4449;BME280;2237;51.870;6.160;2023-04-21T02:22:29;101323.72;;;11.55;100.00
4449;BME280;2237;51.870;6.160;2023-04-21T02:24:56;101322.78;;;11.57;100.00
4449;BME280;2237;51.870;6.160;2023-04-21T02:27:23;101312.25;;;11.62;100.00
4449;BME280;2237;51.870;6.160;2023-04-21T02:29:49;101318.38;;;11.61;100.00
4449;BME280;2237;51.870;6.160;2023-04-21T02:32:15;101321.00;;;11.59;100.00
4449;BME280;2237;51.870;6.160;2023-04-21T02:34:51;101324.53;;;11.55;100.00
4449;BME280;2237;51.870;6.160;2023-04-21T02:37:18;101310.69;;;11.53;100.00
4449;BME280;2237;51.870;6.160;2023-04-21T02:39:45;101327.28;;;11.49;100.00
4449;BME280;2237;51.870;6.160;2023-04-21T02:42:11;101333.44;;;11.44;100.00
4449;BME280;2237;51.870;6.160;2023-04-21T02:44:38;101340.44;;;11.43;100.00
4449;BME280;2237;51.870;6.160;2023-04-21T02:47:04;101333.44;;;11.44;100.00
4449;BME280;2237;51.870;6.160;2023-04-21T02:49:30;101329.97;;;11.45;100.00
4449;BME280;2237;51.870;6.160;2023-04-21T02:51:57;101325.63;;;11.44;100.00
4449;BME280;2237;51.870;6.160;2023-04-21T02:54:23;101326.53;;;11.41;100.00
4449;BME280;2237;51.870;6.160;2023-04-21T02:56:50;101319.63;;;11.40;100.00
4449;BME280;2237;51.870;6.160;2023-04-21T02:59:16;101323.06;;;11.42;100.00
4449;BME280;2237;51.870;6.160;2023-04-21T03:01:43;101324.84;;;11.40;100.00
4449;BME280;2237;51.870;6.160;2023-04-21T03:04:09;101328.38;;;11.36;100.00
4449;BME280;2237;51.870;6.160;2023-04-21T03:06:36;101325.94;;;11.27;100.00
4449;BME280;2237;51.870;6.160;2023-04-21T03:09:03;101319.03;;;11.24;100.00
4449;BME280;2237;51.870;6.160;2023-04-21T03:11:29;101320.09;;;11.14;100.00
4449;BME280;2237;51.870;6.160;2023-04-21T03:13:56;101332.34;;;11.08;100.00
4449;BME280;2237;51.870;6.160;2023-04-21T03:16:22;101318.34;;;11.12;100.00
4449;BME280;2237;51.870;6.160;2023-04-21T03:18:48;101310.47;;;11.16;100.00
4449;BME280;2237;51.870;6.160;2023-04-21T03:21:15;101313.09;;;11.16;100.00
4449;BME280;2237;51.870;6.160;2023-04-21T03:23:41;101315.66;;;11.19;100.00
4449;BME280;2237;51.870;6.160;2023-04-21T03:26:07;101310.44;;;11.19;100.00
4449;BME280;2237;51.870;6.160;2023-04-21T03:28:34;101300.88;;;11.20;100.00
4449;BME280;2237;51.870;6.160;2023-04-21T03:31:00;101319.03;;;11.24;100.00
4449;BME280;2237;51.870;6.160;2023-04-21T03:33:27;101318.22;;;11.21;100.00
4449;BME280;2237;51.870;6.160;2023-04-21T03:35:53;101318.22;;;11.21;100.00
4449;BME280;2237;51.870;6.160;2023-04-21T03:38:20;101316.56;;;11.15;100.00
4449;BME280;2237;51.870;6.160;2023-04-21T03:40:46;101324.38;;;11.15;100.00
4449;BME280;2237;51.870;6.160;2023-04-21T03:43:12;101313.03;;;11.18;100.00
4449;BME280;2237;51.870;6.160;2023-04-21T03:45:39;101320.84;;;11.19;100.00
4449;BME280;2237;51.870;6.160;2023-04-21T03:48:05;101313.91;;;11.18;100.00
4449;BME280;2237;51.870;6.160;2023-04-21T03:50:31;101323.50;;;11.16;100.00
4449;BME280;2237;51.870;6.160;2023-04-21T03:52:58;101321.72;;;11.20;100.00
4449;BME280;2237;51.870;6.160;2023-04-21T03:55:24;101310.38;;;11.21;100.00
4449;BME280;2237;51.870;6.160;2023-04-21T03:57:51;101305.16;;;11.21;100.00
4449;BME280;2237;51.870;6.160;2023-04-21T04:00:17;101303.53;;;11.15;100.00
4449;BME280;2237;51.870;6.160;2023-04-21T04:02:44;101315.75;;;11.13;100.00
4449;BME280;2237;51.870;6.160;2023-04-21T04:05:10;101312.41;;;11.05;100.00
4449;BME280;2237;51.870;6.160;2023-04-21T04:07:37;101327.16;;;11.06;100.00
4449;BME280;2237;51.870;6.160;2023-04-21T04:10:03;101316.81;;;11.02;100.00
4449;BME280;2237;51.870;6.160;2023-04-21T04:12:30;101319.56;;;10.93;100.00
4449;BME280;2237;51.870;6.160;2023-04-21T04:14:56;101322.25;;;10.87;100.00
4449;BME280;2237;51.870;6.160;2023-04-21T04:17:22;101320.44;;;10.92;100.00
4449;BME280;2237;51.870;6.160;2023-04-21T04:19:49;101316.84;;;10.99;100.00
4449;BME280;2237;51.870;6.160;2023-04-21T04:22:15;101307.44;;;10.89;100.00
4449;BME280;2237;51.870;6.160;2023-04-21T04:24:41;101303.09;;;10.89;100.00
4449;BME280;2237;51.870;6.160;2023-04-21T04:27:10;101311.00;;;10.85;100.00
4449;BME280;2237;51.870;6.160;2023-04-21T04:29:40;101305.00;;;10.80;100.00
4449;BME280;2237;51.870;6.160;2023-04-21T04:32:07;101315.50;;;10.75;100.00
4449;BME280;2237;51.870;6.160;2023-04-21T04:34:37;101311.97;;;10.77;100.00
4449;BME280;2237;51.870;6.160;2023-04-21T04:37:03;101306.72;;;10.81;100.00
4449;BME280;2237;51.870;6.160;2023-04-21T04:39:30;101305.03;;;10.78;100.00
4449;BME280;2237;51.870;6.160;2023-04-21T04:41:57;101291.25;;;10.70;100.00
4449;BME280;2237;51.870;6.160;2023-04-21T04:44:23;101307.63;;;10.80;100.00
4449;BME280;2237;51.870;6.160;2023-04-21T04:46:50;101299.72;;;10.83;100.00
4449;BME280;2237;51.870;6.160;2023-04-21T04:49:18;101301.41;;;10.87;100.00
4449;BME280;2237;51.870;6.160;2023-04-21T04:51:44;101304.16;;;10.77;100.00
4449;BME280;2237;51.870;6.160;2023-04-21T04:54:11;101308.44;;;10.82;100.00
4449;BME280;2237;51.870;6.160;2023-04-21T04:56:37;101314.53;;;10.82;100.00
4449;BME280;2237;51.870;6.160;2023-04-21T04:59:04;101317.19;;;10.79;100.00
4449;BME280;2237;51.870;6.160;2023-04-21T05:01:30;101314.47;;;10.84;100.00
4449;BME280;2237;51.870;6.160;2023-04-21T05:03:57;101297.16;;;10.81;100.00
4449;BME280;2237;51.870;6.160;2023-04-21T05:06:24;101305.19;;;10.67;100.00
4449;BME280;2237;51.870;6.160;2023-04-21T05:08:51;101314.75;;;10.65;100.00
4449;BME280;2237;51.870;6.160;2023-04-21T05:11:17;101309.41;;;10.74;100.00
4449;BME280;2237;51.870;6.160;2023-04-21T05:13:43;101333.63;;;10.81;100.00
4449;BME280;2237;51.870;6.160;2023-04-21T05:16:10;101340.53;;;10.84;100.00
4449;BME280;2237;51.870;6.160;2023-04-21T05:18:37;101334.50;;;10.82;100.00
4449;BME280;2237;51.870;6.160;2023-04-21T05:21:03;101339.66;;;10.85;100.00
4449;BME280;2237;51.870;6.160;2023-04-21T05:23:30;101337.84;;;10.91;100.00
4449;BME280;2237;51.870;6.160;2023-04-21T05:25:56;101348.25;;;10.90;100.00
4449;BME280;2237;51.870;6.160;2023-04-21T05:28:22;101344.78;;;10.91;100.00
4449;BME280;2237;51.870;6.160;2023-04-21T05:30:49;101348.44;;;10.77;100.00
4449;BME280;2237;51.870;6.160;2023-04-21T05:33:18;101348.44;;;10.77;100.00
4449;BME280;2237;51.870;6.160;2023-04-21T05:35:45;101347.34;;;10.92;100.00
4449;BME280;2237;51.870;6.160;2023-04-21T05:38:11;101346.44;;;10.95;100.00
4449;BME280;2237;51.870;6.160;2023-04-21T05:40:38;101351.59;;;10.98;100.00
4449;BME280;2237;51.870;6.160;2023-04-21T05:43:04;101343.69;;;11.04;100.00
4449;BME280;2237;51.870;6.160;2023-04-21T05:45:30;101335.94;;;11.01;100.00
4449;BME280;2237;51.870;6.160;2023-04-21T05:47:57;101347.88;;;11.14;100.00
4449;BME280;2237;51.870;6.160;2023-04-21T05:50:24;101353.84;;;11.22;100.00
4449;BME280;2237;51.870;6.160;2023-04-21T05:52:53;101342.47;;;11.26;100.00
4449;BME280;2237;51.870;6.160;2023-04-21T05:55:20;101345.75;;;11.37;100.00
4449;BME280;2237;51.870;6.160;2023-04-21T05:57:46;101339.63;;;11.38;100.00
4449;BME280;2237;51.870;6.160;2023-04-21T06:00:13;101339.59;;;11.41;100.00
4449;BME280;2237;51.870;6.160;2023-04-21T06:02:39;101337.78;;;11.45;100.00
4449;BME280;2237;51.870;6.160;2023-04-21T06:05:06;101341.06;;;11.56;100.00
4449;BME280;2237;51.870;6.160;2023-04-21T06:07:35;101331.25;;;11.70;100.00
4449;BME280;2237;51.870;6.160;2023-04-21T06:10:02;101332.00;;;11.78;100.00
4449;BME280;2237;51.870;6.160;2023-04-21T06:12:29;101331.09;;;11.79;100.00
4449;BME280;2237;51.870;6.160;2023-04-21T06:14:55;101332.88;;;11.75;100.00
4449;BME280;2237;51.870;6.160;2023-04-21T06:17:22;101338.00;;;11.81;100.00
4449;BME280;2237;51.870;6.160;2023-04-21T06:19:49;101333.94;;;11.65;100.00
4449;BME280;2237;51.870;6.160;2023-04-21T06:22:19;101319.09;;;11.67;100.00
4449;BME280;2237;51.870;6.160;2023-04-21T06:24:46;101322.34;;;11.81;100.00
4449;BME280;2237;51.870;6.160;2023-04-21T06:27:13;101329.34;;;11.79;100.00
4449;BME280;2237;51.870;6.160;2023-04-21T06:29:40;101330.78;;;11.94;100.00
4449;BME280;2237;51.870;6.160;2023-04-21T06:32:08;101322.88;;;11.99;100.00
4449;BME280;2237;51.870;6.160;2023-04-21T06:34:35;101319.06;;;12.13;100.00
4449;BME280;2237;51.870;6.160;2023-04-21T06:37:02;101326.38;;;11.98;100.00
4449;BME280;2237;51.870;6.160;2023-04-21T06:39:28;101333.19;;;12.05;100.00
4449;BME280;2237;51.870;6.160;2023-04-21T06:41:55;101326.97;;;12.12;100.00
4449;BME280;2237;51.870;6.160;2023-04-21T06:44:23;101322.28;;;12.27;100.00
4449;BME280;2237;51.870;6.160;2023-04-21T06:46:49;101332.56;;;12.35;100.00
4449;BME280;2237;51.870;6.160;2023-04-21T06:49:16;101330.00;;;12.32;100.00
4449;BME280;2237;51.870;6.160;2023-04-21T06:51:43;101335.03;;;12.41;100.00
4449;BME280;2237;51.870;6.160;2023-04-21T06:54:09;101331.88;;;12.27;100.00
4449;BME280;2237;51.870;6.160;2023-04-21T06:56:36;101325.72;;;12.28;100.00
4449;BME280;2237;51.870;6.160;2023-04-21T06:59:02;101328.09;;;12.40;100.00
4449;BME280;2237;51.870;6.160;2023-04-21T07:01:28;101328.03;;;12.43;100.00
4449;BME280;2237;51.870;6.160;2023-04-21T07:03:55;101329.75;;;12.44;100.00
4449;BME280;2237;51.870;6.160;2023-04-21T07:06:21;101341.53;;;12.22;100.00
4449;BME280;2237;51.870;6.160;2023-04-21T07:08:48;101339.00;;;12.19;100.00
4449;BME280;2237;51.870;6.160;2023-04-21T07:11:14;101342.56;;;12.15;100.00
4449;BME280;2237;51.870;6.160;2023-04-21T07:13:41;101337.28;;;12.18;100.00
4449;BME280;2237;51.870;6.160;2023-04-21T07:16:07;101327.72;;;12.17;100.00
4449;BME280;2237;51.870;6.160;2023-04-21T07:18:33;101327.56;;;12.24;100.00
4449;BME280;2237;51.870;6.160;2023-04-21T07:21:00;101324.00;;;12.28;100.00
4449;BME280;2237;51.870;6.160;2023-04-21T07:23:26;101330.00;;;12.32;100.00
4449;BME280;2237;51.870;6.160;2023-04-21T07:25:53;101334.44;;;12.28;100.00
4449;BME280;2237;51.870;6.160;2023-04-21T07:28:19;101325.53;;;12.38;100.00
4449;BME280;2237;51.870;6.160;2023-04-21T07:30:46;101327.06;;;12.47;100.00
4449;BME280;2237;51.870;6.160;2023-04-21T07:33:12;101319.84;;;12.58;100.00
4449;BME280;2237;51.870;6.160;2023-04-21T07:35:39;101329.28;;;12.65;100.00
4449;BME280;2237;51.870;6.160;2023-04-21T07:38:05;101329.97;;;12.73;100.00
4449;BME280;2237;51.870;6.160;2023-04-21T07:40:32;101323.59;;;12.85;100.00
4449;BME280;2237;51.870;6.160;2023-04-21T07:42:58;101321.69;;;12.91;100.00
4449;BME280;2237;51.870;6.160;2023-04-21T07:45:24;101311.78;;;13.04;100.00
4449;BME280;2237;51.870;6.160;2023-04-21T07:47:51;101320.56;;;13.37;100.00
4449;BME280;2237;51.870;6.160;2023-04-21T07:50:18;101307.00;;;13.55;100.00
4449;BME280;2237;51.870;6.160;2023-04-21T07:52:44;101309.94;;;13.75;100.00
4449;BME280;2237;51.870;6.160;2023-04-21T07:55:11;101310.06;;;13.71;100.00
4449;BME280;2237;51.870;6.160;2023-04-21T07:57:37;101315.00;;;13.81;100.00
4449;BME280;2237;51.870;6.160;2023-04-21T08:00:05;101319.06;;;13.93;100.00
4449;BME280;2237;51.870;6.160;2023-04-21T08:02:32;101315.94;;;14.09;100.00
4449;BME280;2237;51.870;6.160;2023-04-21T08:04:59;101316.75;;;14.11;100.00
4449;BME280;2237;51.870;6.160;2023-04-21T08:07:25;101317.75;;;14.07;100.00
4449;BME280;2237;51.870;6.160;2023-04-21T08:09:52;101310.63;;;14.12;100.00
4449;BME280;2237;51.870;6.160;2023-04-21T08:12:18;101309.25;;;14.29;100.00
4449;BME280;2237;51.870;6.160;2023-04-21T08:14:45;101303.59;;;14.44;100.00
4449;BME280;2237;51.870;6.160;2023-04-21T08:17:11;101311.72;;;14.35;100.00
4449;BME280;2237;51.870;6.160;2023-04-21T08:19:37;101301.72;;;14.18;100.00
4449;BME280;2237;51.870;6.160;2023-04-21T08:22:04;101301.47;;;13.96;100.00
4449;BME280;2237;51.870;6.160;2023-04-21T08:24:31;101315.31;;;14.01;100.00
4449;BME280;2237;51.870;6.160;2023-04-21T08:26:57;101304.84;;;14.01;100.00
4449;BME280;2237;51.870;6.160;2023-04-21T08:29:24;101298.94;;;14.23;100.00
4449;BME280;2237;51.870;6.160;2023-04-21T08:31:50;101301.94;;;14.40;100.00
4449;BME280;2237;51.870;6.160;2023-04-21T08:34:17;101307.22;;;14.67;100.00
4449;BME280;2237;51.870;6.160;2023-04-21T08:36:46;101313.97;;;14.75;100.00
4449;BME280;2237;51.870;6.160;2023-04-21T08:39:16;101315.03;;;14.95;100.00
4449;BME280;2237;51.870;6.160;2023-04-21T08:41:43;101310.16;;;15.11;100.00
4449;BME280;2237;51.870;6.160;2023-04-21T08:44:09;101303.16;;;15.36;100.00
4449;BME280;2237;51.870;6.160;2023-04-21T08:46:37;101302.38;;;15.60;100.00
4449;BME280;2237;51.870;6.160;2023-04-21T08:49:05;101308.31;;;15.89;100.00
4449;BME280;2237;51.870;6.160;2023-04-21T08:51:32;101304.81;;;15.90;100.00
4449;BME280;2237;51.870;6.160;2023-04-21T08:53:58;101305.03;;;16.30;100.00
4449;BME280;2237;51.870;6.160;2023-04-21T08:56:25;101304.56;;;16.42;100.00
4449;BME280;2237;51.870;6.160;2023-04-21T08:58:52;101299.19;;;16.45;100.00
4449;BME280;2237;51.870;6.160;2023-04-21T09:01:19;101304.56;;;16.42;100.00
4449;BME280;2237;51.870;6.160;2023-04-21T09:03:45;101310.75;;;16.18;100.00
4449;BME280;2237;51.870;6.160;2023-04-21T09:06:12;101316.66;;;16.00;100.00
4449;BME280;2237;51.870;6.160;2023-04-21T09:08:43;101308.91;;;15.49;100.00
4449;BME280;2237;51.870;6.160;2023-04-21T09:11:17;101308.69;;;15.55;100.00
4449;BME280;2237;51.870;6.160;2023-04-21T09:13:44;101312.31;;;15.75;100.00
4449;BME280;2237;51.870;6.160;2023-04-21T09:16:19;101315.00;;;16.20;100.00
4449;BME280;2237;51.870;6.160;2023-04-21T09:18:46;101302.03;;;16.62;100.00
4449;BME280;2237;51.870;6.160;2023-04-21T09:21:15;101300.94;;;16.68;100.00
4449;BME280;2237;51.870;6.160;2023-04-21T09:23:47;101301.06;;;16.65;100.00
4449;BME280;2237;51.870;6.160;2023-04-21T09:26:15;101312.59;;;16.37;100.00
4449;BME280;2237;51.870;6.160;2023-04-21T09:28:43;101309.97;;;16.61;100.00
4449;BME280;2237;51.870;6.160;2023-04-21T09:31:14;101301.50;;;16.53;100.00
4449;BME280;2237;51.870;6.160;2023-04-21T09:36:26;101303.25;;;16.75;100.00
4449;BME280;2237;51.870;6.160;2023-04-21T09:41:40;101305.09;;;16.73;100.00
4449;BME280;2237;51.870;6.160;2023-04-21T09:44:06;101298.88;;;16.96;100.00
4449;BME280;2237;51.870;6.160;2023-04-21T09:46:34;101302.03;;;17.26;100.00
4449;BME280;2237;51.870;6.160;2023-04-21T09:49:02;101288.53;;;17.33;100.00
4449;BME280;2237;51.870;6.160;2023-04-21T09:51:30;101283.13;;;17.36;100.00
4449;BME280;2237;51.870;6.160;2023-04-21T09:54:18;101287.28;;;17.42;100.00
4449;BME280;2237;51.870;6.160;2023-04-21T09:56:48;101282.53;;;17.30;100.00
4449;BME280;2237;51.870;6.160;2023-04-21T09:59:19;101283.38;;;17.50;100.00
4449;BME280;2237;51.870;6.160;2023-04-21T10:01:50;101268.66;;;17.67;100.00
4449;BME280;2237;51.870;6.160;2023-04-21T10:04:19;101274.00;;;17.65;100.00
4449;BME280;2237;51.870;6.160;2023-04-21T10:06:48;101275.03;;;17.81;100.00
4449;BME280;2237;51.870;6.160;2023-04-21T10:09:17;101278.88;;;17.54;100.00
4449;BME280;2237;51.870;6.160;2023-04-21T10:11:45;101280.59;;;17.94;100.00
4449;BME280;2237;51.870;6.160;2023-04-21T10:14:12;101278.69;;;18.16;100.00
4449;BME280;2237;51.870;6.160;2023-04-21T10:16:38;101268.69;;;18.41;100.00
4449;BME280;2237;51.870;6.160;2023-04-21T10:19:26;101275.28;;;18.51;100.00
4449;BME280;2237;51.870;6.160;2023-04-21T10:21:54;101270.19;;;18.47;100.00
4449;BME280;2237;51.870;6.160;2023-04-21T10:24:22;101269.34;;;18.28;100.00
4449;BME280;2237;51.870;6.160;2023-04-21T10:26:51;101273.97;;;18.41;100.00
4449;BME280;2237;51.870;6.160;2023-04-21T10:29:32;101279.91;;;18.65;100.00
4449;BME280;2237;51.870;6.160;2023-04-21T10:32:38;101268.03;;;18.74;100.00
4449;BME280;2237;51.870;6.160;2023-04-21T10:35:22;101272.84;;;18.66;100.00
4449;BME280;2237;51.870;6.160;2023-04-21T10:37:49;101265.50;;;18.35;100.00
4449;BME280;2237;51.870;6.160;2023-04-21T10:43:41;101265.22;;;18.22;100.00
4449;BME280;2237;51.870;6.160;2023-04-21T10:46:35;101256.88;;;18.50;100.00
4449;BME280;2237;51.870;6.160;2023-04-21T10:49:28;101256.38;;;18.23;100.00
4449;BME280;2237;51.870;6.160;2023-04-21T10:54:26;101247.59;;;17.85;100.00
4449;BME280;2237;51.870;6.160;2023-04-21T10:56:57;101248.88;;;17.77;100.00
4449;BME280;2237;51.870;6.160;2023-04-21T10:59:25;101246.78;;;17.65;100.00
4449;BME280;2237;51.870;6.160;2023-04-21T11:01:52;101245.75;;;17.48;100.00
4449;BME280;2237;51.870;6.160;2023-04-21T11:04:19;101242.59;;;17.40;100.00
4449;BME280;2237;51.870;6.160;2023-04-21T11:07:13;101249.31;;;17.86;100.00
4449;BME280;2237;51.870;6.160;2023-04-21T11:09:40;101231.63;;;18.26;100.00
4449;BME280;2237;51.870;6.160;2023-04-21T11:12:14;101235.81;;;18.67;100.00
4449;BME280;2237;51.870;6.160;2023-04-21T11:14:45;101230.38;;;19.22;98.54
4449;BME280;2237;51.870;6.160;2023-04-21T11:17:17;101223.34;;;19.39;95.09
4449;BME280;2237;51.870;6.160;2023-04-21T11:19:45;101235.63;;;19.40;93.86
4449;BME280;2237;51.870;6.160;2023-04-21T11:22:11;101229.66;;;19.69;94.64
4449;BME280;2237;51.870;6.160;2023-04-21T11:24:43;101225.06;;;19.89;90.66
4449;BME280;2237;51.870;6.160;2023-04-21T11:27:10;101216.22;;;20.05;89.07
4449;BME280;2237;51.870;6.160;2023-04-21T11:29:37;101217.94;;;19.91;86.97
4449;BME280;2237;51.870;6.160;2023-04-21T11:32:08;101202.88;;;19.76;85.39
4449;BME280;2237;51.870;6.160;2023-04-21T11:34:38;101202.91;;;19.43;85.73
4449;BME280;2237;51.870;6.160;2023-04-21T11:37:08;101197.84;;;19.38;87.39
4449;BME280;2237;51.870;6.160;2023-04-21T11:39:38;101183.50;;;19.27;85.66
4449;BME280;2237;51.870;6.160;2023-04-21T11:42:05;101180.88;;;18.92;88.77
4449;BME280;2237;51.870;6.160;2023-04-21T11:44:41;101180.91;;;19.42;88.50
4449;BME280;2237;51.870;6.160;2023-04-21T11:49:46;101177.66;;;19.20;89.25
4449;BME280;2237;51.870;6.160;2023-04-21T11:52:30;101181.19;;;19.36;89.65
4449;BME280;2237;51.870;6.160;2023-04-21T11:55:01;101178.00;;;19.14;86.57
4449;BME280;2237;51.870;6.160;2023-04-21T11:57:29;101174.91;;;18.72;90.25
4449;BME280;2237;51.870;6.160;2023-04-21T12:00:04;101175.31;;;18.45;93.71
4449;BME280;2237;51.870;6.160;2023-04-21T12:02:34;101183.88;;;18.50;94.90
4449;BME280;2237;51.870;6.160;2023-04-21T12:05:05;101180.56;;;18.98;93.32
4449;BME280;2237;51.870;6.160;2023-04-21T12:07:35;101176.00;;;19.35;87.64
4449;BME280;2237;51.870;6.160;2023-04-21T12:10:16;101168.50;;;19.10;89.23
4449;BME280;2237;51.870;6.160;2023-04-21T12:12:43;101169.38;;;18.59;91.59
4449;BME280;2237;51.870;6.160;2023-04-21T12:15:17;101169.34;;;18.42;95.24
4449;BME280;2237;51.870;6.160;2023-04-21T12:17:47;101166.53;;;18.28;97.71
4449;BME280;2237;51.870;6.160;2023-04-21T12:20:22;101158.84;;;18.59;99.14
4449;BME280;2237;51.870;6.160;2023-04-21T12:22:49;101153.16;;;18.67;96.67
4449;BME280;2237;51.870;6.160;2023-04-21T12:25:16;101155.81;;;18.67;95.55
4449;BME280;2237;51.870;6.160;2023-04-21T12:27:50;101156.31;;;18.39;96.03
4449;BME280;2237;51.870;6.160;2023-04-21T12:30:18;101150.97;;;18.04;97.91
4449;BME280;2237;51.870;6.160;2023-04-21T12:32:45;101142.53;;;18.51;98.10
4449;BME280;2237;51.870;6.160;2023-04-21T12:35:13;101149.16;;;18.59;99.50
4449;BME280;2237;51.870;6.160;2023-04-21T12:37:39;101139.81;;;18.87;96.68
4449;BME280;2237;51.870;6.160;2023-04-21T12:40:06;101138.81;;;19.39;91.46
4449;BME280;2237;51.870;6.160;2023-04-21T12:42:33;101128.34;;;20.00;86.67
4449;BME280;2237;51.870;6.160;2023-04-21T12:45:03;101127.50;;;20.61;82.08
4449;BME280;2237;51.870;6.160;2023-04-21T12:47:30;101122.84;;;20.94;76.38
4449;BME280;2237;51.870;6.160;2023-04-21T12:49:57;101112.25;;;20.94;76.68
4449;BME280;2237;51.870;6.160;2023-04-21T12:52:23;101112.59;;;21.18;73.50
4449;BME280;2237;51.870;6.160;2023-04-21T12:54:49;101095.53;;;21.08;72.61
4449;BME280;2237;51.870;6.160;2023-04-21T12:57:16;101108.19;;;21.03;67.64
4449;BME280;2237;51.870;6.160;2023-04-21T12:59:42;101102.97;;;20.87;68.61
4449;BME280;2237;51.870;6.160;2023-04-21T13:02:11;101082.09;;;21.25;65.67
4449;BME280;2237;51.870;6.160;2023-04-21T13:04:38;101082.03;;;21.26;63.92
4449;BME280;2237;51.870;6.160;2023-04-21T13:07:07;101071.41;;;21.40;65.45
4449;BME280;2237;51.870;6.160;2023-04-21T13:09:33;101066.28;;;21.92;61.27
4449;BME280;2237;51.870;6.160;2023-04-21T13:12:00;101062.50;;;21.82;61.00
4449;BME280;2237;51.870;6.160;2023-04-21T13:14:27;101056.63;;;21.91;59.99
4449;BME280;2237;51.870;6.160;2023-04-21T13:16:53;101055.41;;;22.10;58.38
4449;BME280;2237;51.870;6.160;2023-04-21T13:19:20;101046.91;;;22.05;58.96
4449;BME280;2237;51.870;6.160;2023-04-21T13:21:46;101038.69;;;22.22;57.64